createdAt,value
2022-12-02T00:01:41.529Z,-1.15
2022-12-02T00:04:18.362Z,-1.10
2022-12-02T00:06:46.056Z,-0.98
2022-12-02T00:09:34.449Z,-1.05
2022-12-02T00:12:14.346Z,-0.96
2022-12-02T00:14:42.556Z,-0.96
2022-12-02T00:17:10.166Z,-0.99
2022-12-02T00:19:37.967Z,-1.15
2022-12-02T00:22:05.522Z,-1.20
2022-12-02T00:24:33.336Z,-1.23
2022-12-02T00:27:01.065Z,-1.21
2022-12-02T00:29:29.605Z,-1.27
2022-12-02T00:31:57.329Z,-1.23
2022-12-02T00:34:26.087Z,-1.33
2022-12-02T00:36:53.990Z,-1.32
2022-12-02T00:39:22.098Z,-1.30
2022-12-02T00:41:49.767Z,-1.41
2022-12-02T00:44:36.965Z,-1.40
2022-12-02T00:47:05.113Z,-1.44
2022-12-02T00:49:33.212Z,-1.49
2022-12-02T00:52:00.942Z,-1.43
2022-12-02T00:54:29.395Z,-1.47
2022-12-02T00:56:57.233Z,-1.56
2022-12-02T00:59:25.394Z,-1.56
2022-12-02T01:01:53.720Z,-1.59
2022-12-02T01:04:23.805Z,-1.56
2022-12-02T01:06:51.478Z,-1.57
2022-12-02T01:09:20.695Z,-1.60
2022-12-02T01:11:49.210Z,-1.59
2022-12-02T01:14:16.882Z,-1.61
2022-12-02T01:16:44.848Z,-1.65
2022-12-02T01:19:12.560Z,-1.65
2022-12-02T01:21:42.495Z,-1.68
2022-12-02T01:24:12.266Z,-1.64
2022-12-02T01:26:40.921Z,-1.60
2022-12-02T01:29:08.458Z,-1.71
2022-12-02T01:31:36.232Z,-1.74
2022-12-02T01:34:03.843Z,-1.70
2022-12-02T01:36:32.321Z,-1.65
2022-12-02T01:39:00.560Z,-1.71
2022-12-02T01:41:28.161Z,-1.69
2022-12-02T01:43:55.877Z,-1.71
2022-12-02T01:46:25.030Z,-1.68
2022-12-02T01:48:54.263Z,-1.68
2022-12-02T01:51:22.036Z,-1.69
2022-12-02T01:53:49.684Z,-1.68
2022-12-02T01:56:17.499Z,-1.69
2022-12-02T01:58:45.362Z,-1.73
2022-12-02T02:01:29.928Z,-1.68
2022-12-02T02:03:57.866Z,-1.68
2022-12-02T02:06:26.252Z,-1.71
2022-12-02T02:08:54.180Z,-1.70
2022-12-02T02:11:22.206Z,-1.64
2022-12-02T02:13:50.126Z,-1.69
2022-12-02T02:16:20.359Z,-1.74
2022-12-02T02:18:48.084Z,-1.69
2022-12-02T02:21:25.048Z,-1.68
2022-12-02T02:23:58.187Z,-1.72
2022-12-02T02:26:26.794Z,-1.72
2022-12-02T02:28:55.067Z,-1.68
2022-12-02T02:31:24.700Z,-1.68
2022-12-02T02:33:53.445Z,-1.72
2022-12-02T02:36:21.471Z,-1.75
2022-12-02T02:38:49.601Z,-1.74
2022-12-02T02:41:17.396Z,-1.75
2022-12-02T02:43:45.557Z,-1.74
2022-12-02T02:46:13.304Z,-1.78
2022-12-02T02:48:42.451Z,-1.75
2022-12-02T02:51:10.596Z,-1.76
2022-12-02T02:53:39.292Z,-1.75
2022-12-02T02:56:08.425Z,-1.79
2022-12-02T02:58:37.944Z,-1.77
2022-12-02T03:01:08.759Z,-1.79
2022-12-02T03:03:45.223Z,-1.77
2022-12-02T03:06:14.263Z,-1.77
2022-12-02T03:08:45.482Z,-1.73
2022-12-02T03:11:14.324Z,-1.75
2022-12-02T03:13:42.921Z,-1.78
2022-12-02T03:16:11.937Z,-1.85
2022-12-02T03:18:39.711Z,-1.79
2022-12-02T03:21:07.860Z,-1.70
2022-12-02T03:23:35.481Z,-1.74
2022-12-02T03:26:03.544Z,-1.80
2022-12-02T03:28:31.911Z,-1.77
2022-12-02T03:30:59.861Z,-1.76
2022-12-02T03:33:28.795Z,-1.70
2022-12-02T03:35:56.624Z,-1.71
2022-12-02T03:38:24.166Z,-1.65
2022-12-02T03:40:51.977Z,-1.69
2022-12-02T03:43:19.745Z,-1.72
2022-12-02T03:45:47.467Z,-1.64
2022-12-02T03:48:21.115Z,-1.64
2022-12-02T03:50:49.778Z,-1.66
2022-12-02T03:53:17.721Z,-1.65
2022-12-02T03:55:45.424Z,-1.61
2022-12-02T03:58:13.315Z,-1.62
2022-12-02T04:00:41.424Z,-1.56
2022-12-02T04:03:09.179Z,-1.61
2022-12-02T04:05:37.037Z,-1.62
2022-12-02T04:08:04.788Z,-1.60
2022-12-02T04:10:32.490Z,-1.54
2022-12-02T04:13:00.637Z,-1.52
2022-12-02T04:15:28.284Z,-1.55
2022-12-02T04:17:56.042Z,-1.52
2022-12-02T04:20:23.706Z,-1.50
2022-12-02T04:22:51.395Z,-1.48
2022-12-02T04:25:19.091Z,-1.50
2022-12-02T04:27:47.091Z,-1.48
2022-12-02T04:30:15.006Z,-1.44
2022-12-02T04:32:42.698Z,-1.43
2022-12-02T04:35:10.546Z,-1.51
2022-12-02T04:37:38.423Z,-1.45
2022-12-02T04:40:06.814Z,-1.40
2022-12-02T04:42:34.588Z,-1.44
2022-12-02T04:45:02.288Z,-1.48
2022-12-02T04:47:30.087Z,-1.41
2022-12-02T04:49:57.923Z,-1.45
2022-12-02T04:52:25.567Z,-1.38
2022-12-02T04:54:53.480Z,-1.36
2022-12-02T04:57:22.593Z,-1.38
2022-12-02T04:59:51.941Z,-1.35
2022-12-02T05:02:19.632Z,-1.36
2022-12-02T05:04:47.410Z,-1.33
2022-12-02T05:07:15.102Z,-1.25
2022-12-02T05:09:42.757Z,-1.19
2022-12-02T05:12:10.375Z,-1.20
2022-12-02T05:14:37.982Z,-1.18
2022-12-02T05:17:05.588Z,-1.19
2022-12-02T05:19:33.381Z,-1.21
2022-12-02T05:22:01.288Z,-1.22
2022-12-02T05:24:29.118Z,-1.15
2022-12-02T05:26:57.230Z,-1.11
2022-12-02T05:29:25.063Z,-1.14
2022-12-02T05:31:52.919Z,-1.11
2022-12-02T05:34:20.849Z,-1.12
2022-12-02T05:36:48.610Z,-1.09
2022-12-02T05:39:17.080Z,-1.03
2022-12-02T05:41:44.862Z,-1.02
2022-12-02T05:44:21.096Z,-0.94
2022-12-02T05:46:49.247Z,-0.98
2022-12-02T05:49:22.126Z,-0.92
2022-12-02T05:51:57.099Z,-0.93
2022-12-02T05:54:25.331Z,-0.88
2022-12-02T05:56:53.125Z,-0.88
2022-12-02T05:59:21.497Z,-0.89
2022-12-02T06:01:55.119Z,-0.84
2022-12-02T06:04:29.049Z,-0.82
2022-12-02T06:06:56.909Z,-0.77
2022-12-02T06:09:35.239Z,-0.79
2022-12-02T06:12:11.779Z,-0.69
2022-12-02T06:14:40.702Z,-0.71
2022-12-02T06:17:15.140Z,-0.70
2022-12-02T06:19:48.119Z,-0.65
2022-12-02T06:22:20.976Z,-0.60
2022-12-02T06:24:48.917Z,-0.52
2022-12-02T06:27:18.119Z,-0.54
2022-12-02T06:30:04.806Z,-0.56
2022-12-02T06:32:47.957Z,-0.46
2022-12-02T06:35:20.492Z,-0.50
2022-12-02T06:37:48.856Z,-0.42
2022-12-02T06:40:33.585Z,-0.43
2022-12-02T06:43:01.878Z,-0.42
2022-12-02T06:45:31.565Z,-0.40
2022-12-02T06:48:07.555Z,-0.38
2022-12-02T06:50:43.235Z,-0.31
2022-12-02T06:53:28.837Z,-0.32
2022-12-02T06:56:03.508Z,-0.21
2022-12-02T06:58:37.647Z,-0.12
2022-12-02T07:01:08.463Z,-0.16
2022-12-02T07:03:47.573Z,-0.06
2022-12-02T07:06:19.654Z,-0.10
2022-12-02T07:08:48.278Z,-0.02
2022-12-02T07:11:43.768Z,0.08
2022-12-02T07:14:35.038Z,0.11
2022-12-02T07:17:04.688Z,0.19
2022-12-02T07:19:37.562Z,0.39
2022-12-02T07:22:25.995Z,0.35
2022-12-02T07:25:24.901Z,0.48
2022-12-02T07:27:52.630Z,0.43
2022-12-02T07:30:33.855Z,0.41
2022-12-02T07:33:02.186Z,0.44
2022-12-02T07:35:30.188Z,0.48
2022-12-02T07:37:58.395Z,0.58
2022-12-02T07:40:28.556Z,0.54
2022-12-02T07:42:56.530Z,0.60
2022-12-02T07:45:24.501Z,0.70
2022-12-02T07:47:52.767Z,0.73
2022-12-02T07:50:21.021Z,0.81
2022-12-02T07:52:49.223Z,0.87
2022-12-02T07:55:24.372Z,0.94
2022-12-02T07:57:54.016Z,0.92
2022-12-02T08:00:22.581Z,1.14
2022-12-02T08:02:50.796Z,1.13
2022-12-02T08:05:18.995Z,1.26
2022-12-02T08:07:47.127Z,1.37
2022-12-02T08:10:15.207Z,1.55
2022-12-02T08:12:43.119Z,1.47
2022-12-02T08:15:11.735Z,1.63
2022-12-02T08:17:39.827Z,1.62
2022-12-02T08:20:08.906Z,1.75
2022-12-02T08:22:40.047Z,1.82
2022-12-02T08:25:08.183Z,1.74
2022-12-02T08:27:44.944Z,1.76
2022-12-02T08:30:17.831Z,1.74
2022-12-02T08:32:45.989Z,1.74
2022-12-02T08:35:14.035Z,1.80
2022-12-02T08:37:42.015Z,1.87
2022-12-02T08:40:10.279Z,2.05
2022-12-02T08:42:38.505Z,1.97
2022-12-02T08:45:08.285Z,1.99
2022-12-02T08:47:36.321Z,2.02
2022-12-02T08:50:05.445Z,2.17
2022-12-02T08:52:39.355Z,2.20
2022-12-02T08:55:11.426Z,2.36
2022-12-02T08:57:39.529Z,2.49
2022-12-02T09:00:08.009Z,2.51
2022-12-02T09:02:36.470Z,2.47
2022-12-02T09:05:05.123Z,2.60
2022-12-02T09:07:33.418Z,2.81
2022-12-02T09:10:01.757Z,2.87
2022-12-02T09:12:29.827Z,2.72
2022-12-02T09:14:58.169Z,2.84
2022-12-02T09:17:26.271Z,2.97
2022-12-02T09:19:54.338Z,3.05
2022-12-02T09:22:22.771Z,3.05
2022-12-02T09:24:50.992Z,3.06
2022-12-02T09:27:20.877Z,2.97
2022-12-02T09:29:52.559Z,3.05
2022-12-02T09:32:20.488Z,2.87
2022-12-02T09:34:55.373Z,2.84
2022-12-02T09:37:26.450Z,2.80
2022-12-02T09:39:55.016Z,2.88
2022-12-02T09:42:23.143Z,2.84
2022-12-02T09:44:51.256Z,2.81
2022-12-02T09:47:19.389Z,2.81
2022-12-02T09:50:06.211Z,2.82
2022-12-02T09:52:48.869Z,2.83
2022-12-02T09:55:18.353Z,2.91
2022-12-02T09:57:46.642Z,2.95
2022-12-02T10:00:16.776Z,2.99
2022-12-02T10:02:52.021Z,2.93
2022-12-02T10:05:27.861Z,2.98
2022-12-02T10:07:59.333Z,3.05
2022-12-02T10:10:35.524Z,3.02
2022-12-02T10:13:07.739Z,3.01
2022-12-02T10:15:36.756Z,3.04
2022-12-02T10:18:19.652Z,3.08
2022-12-02T10:20:47.902Z,3.14
2022-12-02T10:23:18.408Z,3.18
2022-12-02T10:25:50.800Z,3.28
2022-12-02T10:28:29.843Z,3.37
2022-12-02T10:31:22.786Z,3.36
2022-12-02T10:33:56.739Z,3.53
2022-12-02T10:36:38.598Z,3.65
2022-12-02T10:39:23.042Z,3.80
2022-12-02T10:42:09.792Z,3.72
2022-12-02T10:44:45.412Z,3.68
2022-12-02T10:47:25.675Z,3.71
2022-12-02T10:49:58.295Z,3.68
2022-12-02T10:52:44.369Z,3.62
2022-12-02T10:55:18.237Z,3.70
2022-12-02T10:57:46.433Z,3.68
2022-12-02T11:00:22.443Z,3.72
2022-12-02T11:02:59.946Z,3.70
2022-12-02T11:05:32.945Z,3.61
2022-12-02T11:08:07.918Z,3.59
2022-12-02T11:10:40.494Z,3.59
2022-12-02T11:13:32.914Z,3.55
2022-12-02T11:16:28.876Z,3.53
2022-12-02T11:18:58.771Z,3.47
2022-12-02T11:21:29.759Z,3.49
2022-12-02T11:24:22.386Z,3.53
2022-12-02T11:26:59.503Z,3.45
2022-12-02T11:29:41.834Z,3.48
2022-12-02T11:32:21.875Z,3.52
2022-12-02T11:35:16.311Z,3.50
2022-12-02T11:37:41.136Z,3.60
2022-12-02T11:40:11.928Z,3.59
2022-12-02T11:42:40.100Z,3.56
2022-12-02T11:45:32.363Z,3.56
2022-12-02T11:48:00.543Z,3.46
2022-12-02T11:50:35.173Z,3.45
2022-12-02T11:53:16.714Z,3.46
2022-12-02T11:55:49.212Z,3.42
2022-12-02T11:58:28.048Z,3.34
2022-12-02T12:01:14.218Z,3.43
2022-12-02T12:03:43.278Z,3.32
2022-12-02T12:06:15.870Z,3.35
2022-12-02T12:08:51.437Z,3.36
2022-12-02T12:11:21.978Z,3.33
2022-12-02T12:14:08.176Z,3.39
2022-12-02T12:16:40.839Z,3.35
2022-12-02T12:19:15.398Z,3.38
2022-12-02T12:21:55.866Z,3.47
2022-12-02T12:24:23.876Z,3.47
2022-12-02T12:26:55.409Z,3.46
2022-12-02T12:29:26.960Z,3.46
2022-12-02T12:31:55.094Z,3.43
2022-12-02T12:34:22.979Z,3.48
2022-12-02T12:36:50.914Z,3.43
2022-12-02T12:39:18.974Z,3.50
2022-12-02T12:42:02.659Z,3.42
2022-12-02T12:44:32.810Z,3.45
2022-12-02T12:47:02.872Z,3.44
2022-12-02T12:49:31.427Z,3.44
2022-12-02T12:52:01.906Z,3.45
2022-12-02T12:54:30.564Z,3.40
2022-12-02T12:56:58.387Z,3.39
2022-12-02T12:59:26.281Z,3.36
2022-12-02T13:01:54.129Z,3.36
2022-12-02T13:04:21.927Z,3.36
2022-12-02T13:06:49.998Z,3.33
2022-12-02T13:09:17.717Z,3.41
2022-12-02T13:11:45.809Z,3.31
2022-12-02T13:14:14.114Z,3.31
2022-12-02T13:16:43.683Z,3.26
2022-12-02T13:19:11.759Z,3.24
2022-12-02T13:21:39.620Z,3.16
2022-12-02T13:24:07.914Z,3.10
2022-12-02T13:26:35.755Z,3.13
2022-12-02T13:29:03.677Z,3.09
2022-12-02T13:31:31.850Z,3.13
2022-12-02T13:33:59.845Z,3.10
2022-12-02T13:36:27.755Z,3.12
2022-12-02T13:38:55.848Z,3.02
2022-12-02T13:41:23.594Z,2.98
2022-12-02T13:43:51.405Z,3.05
2022-12-02T13:46:19.368Z,2.96
2022-12-02T13:48:47.147Z,2.89
2022-12-02T13:51:15.243Z,2.83
2022-12-02T13:53:43.783Z,2.81
2022-12-02T13:56:19.546Z,2.82
2022-12-02T13:58:48.566Z,2.73
2022-12-02T14:01:16.920Z,2.65
2022-12-02T14:03:45.293Z,2.55
2022-12-02T14:06:13.876Z,2.46
2022-12-02T14:08:59.333Z,2.33
2022-12-02T14:11:27.519Z,2.32
2022-12-02T14:13:55.262Z,2.21
2022-12-02T14:16:23.273Z,2.17
2022-12-02T14:18:56.843Z,2.07
2022-12-02T14:21:25.688Z,2.00
2022-12-02T14:23:53.888Z,1.93
2022-12-02T14:26:21.883Z,1.97
2022-12-02T14:28:49.699Z,2.00
2022-12-02T14:31:25.589Z,1.89
2022-12-02T14:34:12.663Z,1.97
2022-12-02T14:36:43.030Z,1.98
2022-12-02T14:39:11.249Z,1.89
2022-12-02T14:41:39.112Z,1.89
2022-12-02T14:44:06.951Z,1.88
2022-12-02T14:46:34.762Z,1.90
2022-12-02T14:49:37.192Z,1.85
2022-12-02T14:51:50.546Z,1.76
2022-12-02T14:54:18.415Z,1.79
2022-12-02T14:56:46.990Z,1.69
2022-12-02T14:59:15.491Z,1.66
2022-12-02T15:01:44.022Z,1.69
2022-12-02T15:04:12.483Z,1.63
2022-12-02T15:06:40.737Z,1.57
2022-12-02T15:09:08.612Z,1.62
2022-12-02T15:11:36.649Z,1.57
2022-12-02T15:14:05.767Z,1.60
2022-12-02T15:16:33.949Z,1.58
2022-12-02T15:19:02.235Z,1.52
2022-12-02T15:21:30.121Z,1.53
2022-12-02T15:23:58.012Z,1.48
2022-12-02T15:26:25.805Z,1.51
2022-12-02T15:28:53.804Z,1.47
2022-12-02T15:31:21.548Z,1.45
2022-12-02T15:33:49.425Z,1.39
2022-12-02T15:36:17.306Z,1.42
2022-12-02T15:38:45.015Z,1.44
2022-12-02T15:41:14.149Z,1.47
2022-12-02T15:43:41.961Z,1.47
2022-12-02T15:46:09.601Z,1.45
2022-12-02T15:48:37.594Z,1.44
2022-12-02T15:51:05.374Z,1.43
2022-12-02T15:53:33.086Z,1.46
2022-12-02T15:56:01.395Z,1.43
2022-12-02T15:58:29.187Z,1.51
2022-12-02T16:00:57.094Z,1.44
2022-12-02T16:03:24.948Z,1.48
2022-12-02T16:05:52.616Z,1.48
2022-12-02T16:08:20.633Z,1.51
2022-12-02T16:10:49.583Z,1.50
2022-12-02T16:13:17.802Z,1.57
2022-12-02T16:15:45.825Z,1.52
2022-12-02T16:18:13.491Z,1.50
2022-12-02T16:20:41.449Z,1.53
2022-12-02T16:23:09.584Z,1.52
2022-12-02T16:25:37.279Z,1.51
2022-12-02T16:28:05.209Z,1.58
2022-12-02T16:30:33.040Z,1.63
2022-12-02T16:33:01.127Z,1.53
2022-12-02T16:35:29.108Z,1.57
2022-12-02T16:38:02.850Z,1.59
2022-12-02T16:40:33.596Z,1.58
2022-12-02T16:43:02.328Z,1.55
2022-12-02T16:45:30.242Z,1.49
2022-12-02T16:47:58.645Z,1.47
2022-12-02T16:50:27.834Z,1.45
2022-12-02T16:52:55.675Z,1.47
2022-12-02T16:55:23.468Z,1.43
2022-12-02T16:57:51.607Z,1.43
2022-12-02T17:00:19.866Z,1.41
2022-12-02T17:02:47.703Z,1.41
2022-12-02T17:05:15.932Z,1.41
2022-12-02T17:07:43.862Z,1.43
2022-12-02T17:10:12.037Z,1.39
2022-12-02T17:12:39.963Z,1.35
2022-12-02T17:15:08.014Z,1.35
2022-12-02T17:17:46.653Z,1.37
2022-12-02T17:20:15.447Z,1.38
2022-12-02T17:22:46.287Z,1.37
2022-12-02T17:25:14.232Z,1.37
2022-12-02T17:27:45.398Z,1.32
2022-12-02T17:30:14.648Z,1.24
2022-12-02T17:32:42.465Z,1.23
2022-12-02T17:35:10.392Z,1.19
2022-12-02T17:37:38.335Z,1.16
2022-12-02T17:40:06.997Z,1.15
2022-12-02T17:42:36.073Z,1.12
2022-12-02T17:45:04.312Z,1.19
2022-12-02T17:47:32.252Z,1.14
2022-12-02T17:50:00.283Z,1.11
2022-12-02T17:52:28.481Z,1.06
2022-12-02T17:54:56.698Z,1.13
2022-12-02T17:57:24.589Z,1.07
2022-12-02T17:59:53.447Z,1.13
2022-12-02T18:02:21.336Z,1.14
2022-12-02T18:04:49.878Z,1.10
2022-12-02T18:07:18.196Z,1.16
2022-12-02T18:09:45.986Z,1.08
2022-12-02T18:12:13.791Z,1.16
2022-12-02T18:14:44.360Z,1.08
2022-12-02T18:17:12.137Z,1.05
2022-12-02T18:19:40.496Z,1.06
2022-12-02T18:22:08.305Z,1.10
2022-12-02T18:24:37.051Z,1.08
2022-12-02T18:27:05.281Z,1.03
2022-12-02T18:29:34.324Z,0.98
2022-12-02T18:32:02.246Z,1.01
2022-12-02T18:34:30.384Z,0.95
2022-12-02T18:37:00.135Z,1.00
2022-12-02T18:39:27.981Z,1.00
2022-12-02T18:41:56.664Z,0.94
2022-12-02T18:44:24.556Z,0.93
2022-12-02T18:46:52.469Z,0.89
2022-12-02T18:49:20.194Z,0.99
2022-12-02T18:51:56.659Z,0.94
2022-12-02T18:54:24.647Z,0.87
2022-12-02T18:56:52.603Z,0.85
2022-12-02T18:59:21.787Z,0.85
2022-12-02T19:01:49.959Z,0.79
2022-12-02T19:04:18.149Z,0.74
2022-12-02T19:06:46.504Z,0.77
2022-12-02T19:09:14.704Z,0.74
2022-12-02T19:11:42.557Z,0.64
2022-12-02T19:14:10.750Z,0.64
2022-12-02T19:16:39.916Z,0.56
2022-12-02T19:19:09.192Z,0.47
2022-12-02T19:21:37.436Z,0.40
2022-12-02T19:24:05.310Z,0.46
2022-12-02T19:26:33.392Z,0.46
2022-12-02T19:29:01.380Z,0.42
2022-12-02T19:31:29.417Z,0.37
2022-12-02T19:33:57.243Z,0.36
2022-12-02T19:36:24.968Z,0.29
2022-12-02T19:38:52.643Z,0.30
2022-12-02T19:41:20.352Z,0.24
2022-12-02T19:43:48.157Z,0.29
2022-12-02T19:46:15.932Z,0.30
2022-12-02T19:48:43.864Z,0.26
2022-12-02T19:51:11.885Z,0.32
2022-12-02T19:53:39.778Z,0.35
2022-12-02T19:56:10.053Z,0.41
2022-12-02T19:58:40.356Z,0.49
2022-12-02T20:01:08.234Z,0.47
2022-12-02T20:03:35.921Z,0.51
2022-12-02T20:06:04.528Z,0.56
2022-12-02T20:08:32.471Z,0.56
2022-12-02T20:11:00.308Z,0.55
2022-12-02T20:13:28.091Z,0.50
2022-12-02T20:15:58.567Z,0.49
2022-12-02T20:18:26.633Z,0.44
2022-12-02T20:20:54.797Z,0.48
2022-12-02T20:23:22.568Z,0.45
2022-12-02T20:25:50.334Z,0.48
2022-12-02T20:28:18.608Z,0.48
2022-12-02T20:30:46.363Z,0.45
2022-12-02T20:33:14.326Z,0.45
2022-12-02T20:35:42.044Z,0.50
2022-12-02T20:38:09.876Z,0.49
2022-12-02T20:40:37.784Z,0.55
2022-12-02T20:43:05.508Z,0.54
2022-12-02T20:45:33.192Z,0.57
2022-12-02T20:48:00.870Z,0.57
2022-12-02T20:50:28.610Z,0.59
2022-12-02T20:52:56.330Z,0.52
2022-12-02T20:55:24.048Z,0.54
2022-12-02T20:57:51.819Z,0.49
2022-12-02T21:00:19.884Z,0.48
2022-12-02T21:02:47.836Z,0.53
2022-12-02T21:05:15.894Z,0.53
2022-12-02T21:07:43.892Z,0.56
2022-12-02T21:10:12.217Z,0.47
2022-12-02T21:12:40.002Z,0.55
2022-12-02T21:15:08.316Z,0.46
2022-12-02T21:17:36.362Z,0.42
2022-12-02T21:20:05.100Z,0.36
2022-12-02T21:22:33.465Z,0.39
2022-12-02T21:25:01.104Z,0.36
2022-12-02T21:27:29.506Z,0.37
2022-12-02T21:29:57.837Z,0.36
2022-12-02T21:32:25.695Z,0.33
2022-12-02T21:34:53.627Z,0.39
2022-12-02T21:37:22.587Z,0.31
2022-12-02T21:39:50.254Z,0.33
2022-12-02T21:42:18.064Z,0.31
2022-12-02T21:44:45.742Z,0.30
2022-12-02T21:47:13.672Z,0.25
2022-12-02T21:49:47.448Z,0.29
2022-12-02T21:52:17.050Z,0.27
2022-12-02T21:54:44.706Z,0.32
2022-12-02T21:57:12.556Z,0.29
2022-12-02T21:59:40.351Z,0.36
2022-12-02T22:02:08.436Z,0.20
2022-12-02T22:04:36.580Z,0.21
2022-12-02T22:07:22.943Z,0.27
2022-12-02T22:09:50.941Z,0.23
2022-12-02T22:12:18.577Z,0.26
2022-12-02T22:14:46.540Z,0.25
2022-12-02T22:17:14.201Z,0.17
2022-12-02T22:19:42.009Z,0.13
2022-12-02T22:22:09.697Z,0.09
2022-12-02T22:24:37.443Z,0.06
2022-12-02T22:27:05.408Z,0.12
2022-12-02T22:29:34.289Z,0.06
2022-12-02T22:32:04.109Z,0.05
2022-12-02T22:34:32.956Z,0.10
2022-12-02T22:37:00.681Z,0.05
2022-12-02T22:39:28.839Z,0.05
2022-12-02T22:41:56.596Z,-0.04
2022-12-02T22:44:25.548Z,-0.08
2022-12-02T22:46:53.293Z,-0.07
2022-12-02T22:49:23.154Z,-0.10
2022-12-02T22:51:50.731Z,-0.09
2022-12-02T22:54:19.341Z,-0.13
2022-12-02T22:56:47.009Z,-0.12
2022-12-02T22:59:14.774Z,-0.06
2022-12-02T23:01:42.512Z,-0.14
2022-12-02T23:04:10.353Z,-0.11
2022-12-02T23:06:37.969Z,-0.13
2022-12-02T23:09:06.003Z,-0.15
2022-12-02T23:11:33.909Z,-0.22
2022-12-02T23:14:01.717Z,-0.21
2022-12-02T23:16:30.076Z,-0.24
2022-12-02T23:18:57.908Z,-0.25
2022-12-02T23:21:25.891Z,-0.29
2022-12-02T23:23:53.525Z,-0.22
2022-12-02T23:26:21.171Z,-0.20
2022-12-02T23:28:49.206Z,-0.27
2022-12-02T23:31:16.979Z,-0.28
2022-12-02T23:33:44.855Z,-0.28
2022-12-02T23:36:12.664Z,-0.22
2022-12-02T23:38:40.446Z,-0.24
2022-12-02T23:41:08.245Z,-0.41
2022-12-02T23:43:36.033Z,-0.43
2022-12-02T23:46:04.016Z,-0.49
2022-12-02T23:48:31.774Z,-0.46
2022-12-02T23:51:01.599Z,-0.43
2022-12-02T23:53:29.507Z,-0.47
2022-12-02T23:55:57.268Z,-0.50
2022-12-02T23:58:24.989Z,-0.52
